Time;durP1;ratioP1;P1;durP2;ratioP2;P2;SDS_P1;SDS_P2;PMS_P1;PMS_P2;Temp;Humidity;BMP_temperature;BMP_pressure;BME280_temperature;BME280_humidity;BME280_pressure;Samples;Min_cycle;Max_cycle;Signal;HPM_P1;HPM_P2
2024/01/22 00:00:25;;;;;;;6.45;4.63;;;6.90;99.90;;;;;;5025801;28;20446;-63
2024/01/22 00:02:51;;;;;;;8.68;4.63;;;6.80;99.90;;;;;;5023308;28;20180;-62
2024/01/22 00:05:16;;;;;;;11.25;4.47;;;6.70;99.90;;;;;;5037411;28;20507;-63
2024/01/22 00:07:42;;;;;;;13.48;4.90;;;6.70;99.90;;;;;;5035451;28;20041;-67
2024/01/22 00:10:08;;;;;;;7.38;4.20;;;6.60;99.90;;;;;;5036371;28;20041;-64
2024/01/22 00:12:34;;;;;;;9.77;5.03;;;6.50;99.90;;;;;;5038964;28;20503;-63
2024/01/22 00:15:00;;;;;;;8.45;5.10;;;6.60;99.90;;;;;;5038569;28;20033;-64
2024/01/22 00:17:25;;;;;;;10.10;4.68;;;6.50;99.90;;;;;;5042311;28;20037;-63
2024/01/22 00:19:51;;;;;;;11.20;4.78;;;6.50;99.90;;;;;;5039268;28;20124;-63
2024/01/22 00:22:16;;;;;;;10.20;4.00;;;6.50;99.90;;;;;;5042912;28;20076;-63
2024/01/22 00:24:42;;;;;;;8.77;4.55;;;6.60;99.90;;;;;;5045552;28;20041;-64
2024/01/22 00:27:07;;;;;;;7.95;4.43;;;6.70;99.90;;;;;;5049250;28;20171;-65
2024/01/22 00:29:33;;;;;;;10.38;5.57;;;6.70;99.90;;;;;;5029326;28;20128;-63
2024/01/22 00:31:59;;;;;;;7.60;4.55;;;6.70;99.90;;;;;;5036101;28;20041;-63
2024/01/22 00:34:24;;;;;;;11.18;5.80;;;6.70;99.90;;;;;;5044366;28;20041;-64
2024/01/22 00:36:50;;;;;;;7.18;4.45;;;6.80;99.90;;;;;;5034085;28;20060;-62
2024/01/22 00:39:16;;;;;;;9.95;4.55;;;6.80;99.90;;;;;;5028974;28;20111;-64
2024/01/22 00:41:41;;;;;;;8.68;4.55;;;6.70;99.90;;;;;;5028843;28;20048;-62
2024/01/22 00:44:07;;;;;;;8.10;4.05;;;6.70;99.90;;;;;;5026804;28;20638;-64
2024/01/22 00:46:33;;;;;;;11.93;4.80;;;6.70;99.90;;;;;;5028491;28;20041;-65
2024/01/22 00:48:58;;;;;;;10.25;4.45;;;6.70;99.90;;;;;;5029694;28;20037;-63
2024/01/22 00:51:24;;;;;;;11.18;4.85;;;6.80;99.90;;;;;;5035783;28;20040;-62
2024/01/22 00:53:49;;;;;;;10.55;4.97;;;6.80;99.90;;;;;;5048332;28;20150;-60
2024/01/22 00:56:15;;;;;;;6.93;4.28;;;6.90;99.90;;;;;;5034415;28;20367;-64
2024/01/22 00:58:40;;;;;;;9.25;4.70;;;6.80;99.90;;;;;;5028638;28;20156;-65
2024/01/22 01:01:08;;;;;;;9.02;4.45;;;7.00;99.90;;;;;;5041384;28;20537;-64
2024/01/22 01:03:34;;;;;;;12.65;3.80;;;6.90;99.90;;;;;;5043903;28;20049;-61
2024/01/22 01:05:59;;;;;;;9.38;4.13;;;6.90;99.90;;;;;;5045016;28;20082;-62
2024/01/22 01:08:25;;;;;;;6.88;4.00;;;7.00;99.90;;;;;;5044788;28;20045;-64
2024/01/22 01:10:51;;;;;;;6.10;3.75;;;7.10;99.90;;;;;;5040326;28;20047;-65
2024/01/22 01:13:17;;;;;;;6.68;3.60;;;7.20;99.90;;;;;;5028586;28;20052;-62
2024/01/22 01:15:43;;;;;;;6.53;4.10;;;7.20;99.90;;;;;;5025481;28;20041;-63
2024/01/22 01:18:08;;;;;;;9.90;4.50;;;7.20;99.90;;;;;;5029352;28;20413;-63
2024/01/22 01:20:34;;;;;;;8.23;4.32;;;7.30;99.90;;;;;;5043020;28;20082;-65
2024/01/22 01:23:00;;;;;;;8.25;3.67;;;7.30;99.90;;;;;;5039728;28;20054;-62
2024/01/22 01:25:26;;;;;;;8.10;5.20;;;7.40;99.90;;;;;;5042046;28;20144;-64
2024/01/22 01:27:51;;;;;;;7.82;3.83;;;7.50;99.90;;;;;;5036416;28;20051;-62
2024/01/22 01:30:17;;;;;;;10.48;3.83;;;7.40;99.90;;;;;;5037740;28;20091;-64
2024/01/22 01:32:42;;;;;;;9.70;4.43;;;7.30;99.90;;;;;;5028233;28;20044;-63
2024/01/22 01:35:08;;;;;;;8.13;4.80;;;7.30;99.90;;;;;;5042879;28;20056;-64
2024/01/22 01:37:34;;;;;;;6.90;3.85;;;7.20;99.90;;;;;;5039050;28;20119;-63
2024/01/22 01:39:59;;;;;;;12.02;4.78;;;7.10;99.90;;;;;;5038091;28;20033;-64
2024/01/22 01:42:25;;;;;;;8.20;4.10;;;7.20;99.90;;;;;;5028709;28;20478;-63
2024/01/22 01:44:52;;;;;;;6.35;4.72;;;7.20;99.90;;;;;;5030650;28;20041;-64
2024/01/22 01:47:18;;;;;;;10.75;4.82;;;7.30;99.90;;;;;;5029464;28;20385;-63
2024/01/22 01:49:45;;;;;;;9.63;4.60;;;7.20;99.90;;;;;;5041162;28;20056;-64
2024/01/22 01:52:12;;;;;;;8.35;5.05;;;7.20;99.90;;;;;;5030494;28;20097;-63
2024/01/22 01:54:39;;;;;;;8.77;5.25;;;7.20;1.00;;;;;;5031502;28;20079;-64
2024/01/22 01:57:09;;;;;;;7.70;4.78;;;7.00;88.80;;;;;;5028791;28;20060;-63
2024/01/22 01:59:35;;;;;;;7.47;5.00;;;7.30;99.90;;;;;;5037736;28;20041;-64
2024/01/22 02:02:01;;;;;;;12.25;5.40;;;7.10;99.90;;;;;;5030292;28;20044;-64
2024/01/22 02:04:26;;;;;;;9.55;5.35;;;7.10;92.90;;;;;;5038643;28;20041;-64
2024/01/22 02:06:52;;;;;;;10.70;5.40;;;7.10;74.40;;;;;;5042684;28;20041;-62
2024/01/22 02:09:18;;;;;;;11.45;5.57;;;7.00;55.00;;;;;;5032126;28;20033;-64
2024/01/22 02:11:43;;;;;;;13.30;5.70;;;7.30;64.20;;;;;;5043228;28;20144;-64
2024/01/22 02:14:09;;;;;;;11.32;5.78;;;7.00;60.00;;;;;;5042696;28;20134;-64
2024/01/22 02:16:34;;;;;;;11.23;5.85;;;7.30;67.60;;;;;;5051633;28;20029;-63
2024/01/22 02:19:00;;;;;;;9.00;5.60;;;7.30;99.90;;;;;;5051527;28;20083;-64
2024/01/22 02:21:26;;;;;;;9.52;5.32;;;6.90;99.90;;;;;;5052249;28;20124;-61
2024/01/22 02:23:51;;;;;;;10.40;5.72;;;7.50;99.40;;;;;;5046895;28;20049;-62
2024/01/22 02:26:17;;;;;;;12.30;5.82;;;7.10;99.90;;;;;;5067067;28;20545;-64
2024/01/22 02:28:42;;;;;;;13.52;6.18;;;7.60;99.90;;;;;;5051884;28;20060;-65
2024/01/22 02:31:10;;;;;;;11.45;6.18;;;6.80;99.90;;;;;;5048810;28;20049;-64
2024/01/22 02:33:35;;;;;;;11.20;5.38;;;7.60;99.90;;;;;;5042980;28;20159;-64
2024/01/22 02:36:01;;;;;;;9.95;5.57;;;7.00;99.90;;;;;;5038417;28;20030;-63
2024/01/22 02:38:27;;;;;;;10.27;6.70;;;7.40;99.90;;;;;;5050265;28;20036;-63
2024/01/22 02:40:52;;;;;;;15.18;6.75;;;7.60;99.90;;;;;;5024516;28;20076;-62
2024/01/22 02:43:18;;;;;;;9.85;5.70;;;7.60;99.90;;;;;;5030328;28;20041;-64
2024/01/22 02:45:44;;;;;;;11.60;5.80;;;7.10;99.90;;;;;;5035748;28;20041;-62
2024/01/22 02:48:09;;;;;;;10.48;7.22;;;7.10;99.90;;;;;;5040767;28;20049;-64
2024/01/22 02:50:35;;;;;;;16.10;6.72;;;7.10;99.90;;;;;;5043648;28;20036;-64
2024/01/22 02:53:00;;;;;;;12.93;6.13;;;7.50;99.90;;;;;;5033489;28;20040;-67
2024/01/22 02:55:26;;;;;;;9.60;6.30;;;7.80;99.90;;;;;;5008305;28;20041;-66
2024/01/22 02:57:51;;;;;;;10.00;6.10;;;7.40;99.90;;;;;;5030451;28;20036;-65
2024/01/22 03:00:17;;;;;;;11.23;5.85;;;7.90;99.90;;;;;;5032279;28;20548;-64
2024/01/22 03:02:43;;;;;;;10.40;6.15;;;7.70;99.90;;;;;;5047322;28;20044;-63
2024/01/22 03:05:08;;;;;;;13.70;7.25;;;7.80;99.90;;;;;;5045411;28;20442;-66
2024/01/22 03:07:34;;;;;;;11.55;6.38;;;7.90;99.90;;;;;;5052396;28;20479;-66
2024/01/22 03:10:00;;;;;;;12.85;7.00;;;7.50;1.00;;;;;;5047881;28;20037;-64
2024/01/22 03:12:25;;;;;;;11.25;6.07;;;7.90;1.00;;;;;;5046999;28;20131;-68
2024/01/22 03:14:51;;;;;;;10.32;5.90;;;7.70;1.00;;;;;;5043452;28;20119;-65
2024/01/22 03:17:16;;;;;;;9.88;5.68;;;7.20;99.90;;;;;;5043853;28;20188;-63
2024/01/22 03:19:42;;;;;;;11.40;6.30;;;7.30;99.90;;;;;;5049352;28;20033;-65
2024/01/22 03:22:08;;;;;;;11.40;6.72;;;7.40;1.00;;;;;;5047991;28;20432;-65
2024/01/22 03:24:35;;;;;;;9.80;5.63;;;7.40;99.90;;;;;;5051288;28;20429;-64
2024/01/22 03:27:01;;;;;;;12.00;6.18;;;7.30;99.90;;;;;;5042809;28;20132;-62
2024/01/22 03:29:26;;;;;;;10.23;5.38;;;7.40;99.90;;;;;;5033503;28;20119;-65
2024/01/22 03:31:53;;;;;;;13.68;5.95;;;8.00;99.90;;;;;;5040701;28;20351;-65
2024/01/22 03:34:19;;;;;;;10.43;5.70;;;7.40;1.00;;;;;;5039222;28;20055;-65
2024/01/22 03:36:44;;;;;;;9.43;5.18;;;8.10;1.00;;;;;;5045226;28;20045;-65
2024/01/22 03:39:10;;;;;;;10.73;6.18;;;7.40;1.00;;;;;;5047103;28;20420;-67
2024/01/22 03:41:35;;;;;;;8.52;5.75;;;7.50;1.00;;;;;;5040441;28;20041;-67
2024/01/22 03:44:02;;;;;;;11.02;5.45;;;7.50;1.00;;;;;;5038424;28;20520;-62
2024/01/22 03:46:28;;;;;;;11.77;4.75;;;8.10;1.00;;;;;;5038410;28;20334;-66
2024/01/22 03:48:54;;;;;;;9.98;5.68;;;7.50;1.00;;;;;;5048545;28;20048;-65
2024/01/22 03:51:19;;;;;;;7.97;5.30;;;8.10;1.00;;;;;;5036781;28;20041;-65
2024/01/22 03:53:45;;;;;;;7.50;5.80;;;7.90;1.00;;;;;;5035839;28;20554;-65
2024/01/22 03:56:10;;;;;;;9.90;6.03;;;7.60;19.10;;;;;;5028061;28;20029;-64
2024/01/22 03:58:38;;;;;;;12.57;6.70;;;8.20;36.50;;;;;;5025381;28;20044;-65
2024/01/22 04:01:04;;;;;;;12.63;6.20;;;7.60;54.50;;;;;;5028310;28;20084;-65
2024/01/22 04:03:32;;;;;;;9.55;5.63;;;7.70;70.60;;;;;;5015922;28;20120;-64
2024/01/22 04:05:57;;;;;;;11.65;5.97;;;8.30;88.00;;;;;;5025928;28;20123;-65
2024/01/22 04:08:23;;;;;;;10.00;5.78;;;7.70;95.80;;;;;;5027142;28;20037;-62
2024/01/22 04:10:48;;;;;;;11.07;5.75;;;8.30;99.90;;;;;;5013383;28;20045;-63
2024/01/22 04:13:14;;;;;;;10.25;5.50;;;7.60;99.90;;;;;;5027303;28;20041;-64
2024/01/22 04:15:40;;;;;;;7.47;5.43;;;8.30;99.90;;;;;;5028354;28;20032;-65
2024/01/22 04:18:06;;;;;;;8.65;5.15;;;7.80;99.90;;;;;;5009224;28;20041;-64
2024/01/22 04:20:32;;;;;;;20.00;6.88;;;7.80;99.90;;;;;;5009728;28;20485;-64
2024/01/22 04:22:58;;;;;;;9.30;5.70;;;7.70;99.90;;;;;;5032365;28;20067;-63
2024/01/22 04:25:23;;;;;;;9.20;6.10;;;8.50;99.90;;;;;;5025790;28;20045;-66
2024/01/22 04:27:49;;;;;;;9.23;5.63;;;8.10;99.90;;;;;;5026847;28;20039;-65
2024/01/22 04:30:14;;;;;;;8.23;5.38;;;7.90;99.90;;;;;;5027915;28;20053;-62
2024/01/22 04:32:40;;;;;;;9.30;5.53;;;7.80;99.90;;;;;;5029192;28;20453;-65
2024/01/22 04:35:07;;;;;;;10.68;5.65;;;8.20;99.90;;;;;;5027768;28;20048;-65
2024/01/22 04:37:33;;;;;;;8.13;5.18;;;8.60;99.90;;;;;;5027952;28;20041;-63
2024/01/22 04:40:17;;;;;;;8.70;5.30;;;8.10;99.90;;;;;;5028781;28;20043;-65
2024/01/22 04:42:44;;;;;;;10.68;5.38;;;8.60;99.90;;;;;;5030290;28;20410;-64
2024/01/22 04:45:10;;;;;;;7.10;5.72;;;8.80;99.90;;;;;;5010950;28;20049;-65
2024/01/22 04:47:36;;;;;;;9.00;5.28;;;8.50;99.90;;;;;;5023214;28;20045;-63
2024/01/22 04:50:02;;;;;;;10.88;6.22;;;8.70;99.90;;;;;;5030180;28;20037;-63
2024/01/22 04:52:27;;;;;;;7.90;5.60;;;8.60;99.90;;;;;;5029387;28;20101;-65
2024/01/22 04:54:53;;;;;;;11.02;5.50;;;8.70;99.90;;;;;;5029786;28;20034;-66
2024/01/22 04:57:19;;;;;;;6.75;4.60;;;8.80;99.90;;;;;;5030258;28;20094;-69
2024/01/22 04:59:44;;;;;;;12.05;5.18;;;8.20;99.90;;;;;;5027387;28;20038;-68
2024/01/22 05:02:10;;;;;;;8.50;5.07;;;8.30;99.90;;;;;;5031227;28;20054;-64
2024/01/22 05:04:35;;;;;;;7.18;5.10;;;8.30;99.90;;;;;;5023286;28;20069;-66
2024/01/22 05:07:01;;;;;;;9.15;5.63;;;8.40;99.90;;;;;;5025380;28;20045;-64
2024/01/22 05:09:26;;;;;;;8.07;5.30;;;8.40;99.90;;;;;;5035711;28;20468;-66
2024/01/22 05:11:52;;;;;;;11.60;5.20;;;8.40;99.90;;;;;;5029050;28;20649;-65
2024/01/22 05:14:18;;;;;;;6.97;4.80;;;8.50;99.90;;;;;;5027801;28;20126;-64
2024/01/22 05:16:43;;;;;;;6.43;4.57;;;8.90;99.90;;;;;;5048138;28;20044;-66
2024/01/22 05:19:09;;;;;;;7.97;5.20;;;8.90;99.90;;;;;;5048526;28;20048;-66
2024/01/22 05:21:35;;;;;;;6.28;4.80;;;8.90;99.90;;;;;;5037258;28;20469;-66
2024/01/22 05:24:00;;;;;;;8.98;5.10;;;9.20;99.90;;;;;;5057729;28;20605;-65
2024/01/22 05:26:26;;;;;;;7.30;4.90;;;9.10;99.90;;;;;;5039975;28;20065;-65
2024/01/22 05:28:51;;;;;;;9.32;5.18;;;8.60;99.90;;;;;;5013407;28;20462;-64
2024/01/22 05:31:17;;;;;;;9.13;4.70;;;8.60;99.90;;;;;;5029653;28;20037;-65
2024/01/22 05:33:42;;;;;;;6.03;4.72;;;8.50;99.90;;;;;;5046386;28;20143;-67
2024/01/22 05:36:09;;;;;;;6.25;4.30;;;9.00;99.90;;;;;;5047603;28;20473;-65
2024/01/22 05:38:38;;;;;;;7.55;4.80;;;8.60;99.90;;;;;;5022133;28;20156;-64
2024/01/22 05:41:04;;;;;;;5.03;4.13;;;8.80;99.90;;;;;;5037862;28;20060;-65
2024/01/22 05:43:29;;;;;;;5.70;4.55;;;9.30;99.90;;;;;;5022250;28;20065;-63
2024/01/22 05:45:55;;;;;;;6.97;4.35;;;8.80;99.90;;;;;;5039323;28;20048;-65
2024/01/22 05:48:21;;;;;;;7.95;4.70;;;8.80;99.90;;;;;;5047790;28;20041;-65
2024/01/22 05:50:46;;;;;;;9.13;3.90;;;9.10;99.90;;;;;;5059849;28;20457;-64
2024/01/22 05:53:12;;;;;;;6.70;4.50;;;9.40;99.90;;;;;;5049946;28;20109;-63
2024/01/22 05:55:39;;;;;;;6.00;4.65;;;8.70;99.90;;;;;;5046417;28;20032;-66
2024/01/22 05:58:05;;;;;;;6.95;4.18;;;8.90;99.90;;;;;;5040237;28;20033;-64
2024/01/22 06:00:30;;;;;;;9.65;4.72;;;8.80;99.90;;;;;;5042185;28;20083;-65
2024/01/22 06:02:58;;;;;;;5.05;3.78;;;9.50;99.90;;;;;;5042910;28;20458;-65
2024/01/22 06:05:24;;;;;;;7.57;3.72;;;9.20;99.90;;;;;;5046974;28;20517;-65
2024/01/22 06:07:49;;;;;;;6.25;3.40;;;9.20;99.90;;;;;;5039789;28;20121;-63
2024/01/22 06:10:15;;;;;;;5.32;3.22;;;9.50;99.90;;;;;;5042391;28;20029;-64
2024/01/22 06:12:41;;;;;;;7.00;3.60;;;9.20;99.90;;;;;;5033067;28;20431;-64
2024/01/22 06:15:07;;;;;;;3.70;2.70;;;9.20;99.90;;;;;;5042901;28;20491;-66
2024/01/22 06:17:33;;;;;;;5.47;3.08;;;9.70;99.90;;;;;;5043885;28;20390;-65
2024/01/22 06:20:01;;;;;;;5.25;2.90;;;9.60;99.90;;;;;;5032006;28;20120;-64
2024/01/22 06:22:27;;;;;;;6.38;2.95;;;9.70;99.90;;;;;;5041934;28;20132;-65
2024/01/22 06:24:53;;;;;;;3.63;2.65;;;9.80;99.90;;;;;;5049422;28;20043;-63
2024/01/22 06:27:18;;;;;;;5.07;3.22;;;9.60;99.90;;;;;;5046213;28;20779;-64
2024/01/22 06:29:44;;;;;;;4.03;2.53;;;10.10;99.90;;;;;;5043801;28;20049;-64
2024/01/22 06:32:10;;;;;;;5.35;2.58;;;9.70;99.90;;;;;;5037631;28;20347;-63
2024/01/22 06:34:36;;;;;;;3.85;2.78;;;9.50;99.90;;;;;;5042485;28;20456;-67
2024/01/22 06:37:03;;;;;;;4.45;2.60;;;10.00;99.90;;;;;;5027201;28;20048;-67
2024/01/22 06:39:28;;;;;;;4.28;3.08;;;9.70;99.90;;;;;;5035418;28;20497;-64
2024/01/22 06:41:54;;;;;;;5.55;2.90;;;9.90;99.90;;;;;;5038488;28;20041;-65
2024/01/22 06:44:20;;;;;;;3.78;2.10;;;10.20;99.90;;;;;;5027136;28;20064;-63
2024/01/22 06:46:45;;;;;;;3.13;2.42;;;10.20;99.90;;;;;;5019290;28;20094;-68
2024/01/22 06:49:11;;;;;;;3.85;1.90;;;10.40;99.90;;;;;;5035959;28;20764;-62
2024/01/22 06:51:40;;;;;;;3.13;2.15;;;10.00;99.90;;;;;;5045406;28;20054;-64
2024/01/22 06:54:05;;;;;;;3.58;2.05;;;10.40;99.90;;;;;;5033943;28;20034;-67
2024/01/22 06:56:31;;;;;;;4.45;1.80;;;10.40;99.90;;;;;;5029742;28;20121;-65
2024/01/22 06:58:58;;;;;;;3.55;3.25;;;10.30;99.90;;;;;;5016131;28;20211;-66
2024/01/22 07:01:27;;;;;;;5.18;2.00;;;10.20;99.90;;;;;;5025353;28;20125;-63
2024/01/22 07:03:54;;;;;;;5.50;2.13;;;10.30;99.90;;;;;;5028610;28;20045;-66
2024/01/22 07:06:20;;;;;;;7.93;2.17;;;9.90;99.90;;;;;;5027182;28;20029;-64
2024/01/22 07:08:46;;;;;;;5.68;2.40;;;10.30;99.90;;;;;;5030036;28;20384;-67
2024/01/22 07:11:12;;;;;;;9.70;2.70;;;10.00;99.90;;;;;;5027312;28;20105;-66
2024/01/22 07:13:38;;;;;;;11.65;3.15;;;9.90;99.90;;;;;;5033222;28;20033;-64
2024/01/22 07:16:05;;;;;;;11.02;3.05;;;9.80;99.90;;;;;;5030460;28;20504;-65
2024/01/22 07:18:30;;;;;;;10.82;4.03;;;10.40;99.90;;;;;;5034056;28;20045;-66
2024/01/22 07:20:56;;;;;;;9.10;3.97;;;9.90;99.90;;;;;;5047271;28;20037;-65
2024/01/22 07:23:21;;;;;;;20.45;4.18;;;10.30;99.90;;;;;;5050260;28;20393;-65
2024/01/22 07:25:48;;;;;;;10.02;3.33;;;10.10;99.90;;;;;;5049448;28;20645;-63
2024/01/22 07:28:13;;;;;;;13.50;3.63;;;10.20;99.90;;;;;;5043334;28;20064;-66
2024/01/22 07:30:39;;;;;;;20.02;3.83;;;9.80;99.90;;;;;;5041200;28;20654;-64
2024/01/22 07:33:05;;;;;;;12.73;3.58;;;9.80;99.90;;;;;;5045228;28;20661;-66
2024/01/22 07:35:30;;;;;;;15.88;3.70;;;9.70;99.90;;;;;;5030271;28;20049;-65
2024/01/22 07:37:57;;;;;;;16.58;3.72;;;9.60;99.90;;;;;;5046812;28;20400;-66
2024/01/22 07:40:22;;;;;;;15.18;4.05;;;9.50;99.90;;;;;;5047913;28;20393;-65
2024/01/22 07:42:48;;;;;;;17.50;4.07;;;9.70;99.90;;;;;;5030688;28;20075;-66
2024/01/22 07:45:14;;;;;;;24.20;3.72;;;9.70;99.90;;;;;;5046585;28;20086;-68
2024/01/22 07:47:40;;;;;;;14.30;4.13;;;9.90;99.90;;;;;;5043238;28;20041;-64
2024/01/22 07:50:06;;;;;;;19.50;4.38;;;10.40;99.90;;;;;;5050113;28;20039;-65
2024/01/22 07:52:35;;;;;;;20.15;4.30;;;10.10;99.90;;;;;;5045890;28;20497;-65
2024/01/22 07:55:02;;;;;;;19.65;4.40;;;10.30;99.90;;;;;;5044096;28;20552;-66
2024/01/22 07:57:28;;;;;;;22.92;4.53;;;10.20;99.90;;;;;;5029033;28;20104;-67
2024/01/22 07:59:54;;;;;;;21.55;4.10;;;9.50;99.90;;;;;;5030697;28;20543;-67
2024/01/22 08:02:19;;;;;;;22.25;4.63;;;10.00;99.90;;;;;;5057590;28;20106;-66
2024/01/22 08:04:45;;;;;;;23.48;4.25;;;10.10;99.90;;;;;;5045273;28;20056;-66
2024/01/22 08:07:11;;;;;;;31.25;4.75;;;9.60;99.90;;;;;;5046532;28;20056;-68
2024/01/22 08:09:37;;;;;;;20.13;4.50;;;9.90;99.90;;;;;;5047911;28;20413;-65
2024/01/22 08:12:06;;;;;;;30.83;4.90;;;9.60;99.90;;;;;;5029650;28;20068;-66
2024/01/22 08:14:33;;;;;;;23.90;4.63;;;9.70;99.90;;;;;;5041846;28;20124;-66
2024/01/22 08:16:58;;;;;;;26.02;5.22;;;9.50;99.90;;;;;;5046069;28;20106;-67
2024/01/22 08:19:24;;;;;;;22.83;4.97;;;10.20;99.90;;;;;;5038607;28;20098;-64
2024/01/22 08:21:49;;;;;;;21.35;5.00;;;10.10;99.90;;;;;;5044903;28;20045;-66
2024/01/22 08:24:15;;;;;;;22.33;4.53;;;10.20;99.90;;;;;;5044955;28;20036;-66
2024/01/22 08:26:42;;;;;;;17.33;4.40;;;9.60;99.90;;;;;;5041668;28;20394;-64
2024/01/22 08:29:07;;;;;;;20.75;5.22;;;10.20;99.90;;;;;;5044049;28;20120;-63
2024/01/22 08:31:33;;;;;;;18.92;4.95;;;10.50;99.90;;;;;;5045809;28;20649;-65
2024/01/22 08:34:00;;;;;;;18.25;4.47;;;10.30;99.90;;;;;;5045142;28;20523;-64
2024/01/22 08:36:26;;;;;;;26.20;4.82;;;10.00;99.90;;;;;;5023365;28;20116;-64
2024/01/22 08:38:51;;;;;;;25.20;5.10;;;10.40;99.90;;;;;;5041351;28;20849;-64
2024/01/22 08:41:17;;;;;;;21.25;5.65;;;10.40;99.90;;;;;;5045137;28;20040;-65
2024/01/22 08:43:43;;;;;;;22.42;4.47;;;10.10;99.90;;;;;;5046272;28;20052;-64
2024/01/22 08:46:08;;;;;;;25.80;4.85;;;10.50;99.90;;;;;;5050498;28;20036;-63
2024/01/22 08:48:34;;;;;;;28.52;5.18;;;10.10;99.90;;;;;;5046639;28;20044;-63
2024/01/22 08:50:59;;;;;;;26.85;5.00;;;10.50;99.90;;;;;;5046666;28;20043;-65
2024/01/22 08:53:25;;;;;;;20.48;4.53;;;10.30;99.90;;;;;;5047621;28;20041;-64
2024/01/22 08:55:51;;;;;;;22.08;4.15;;;10.20;99.90;;;;;;5047816;28;20116;-65
2024/01/22 08:58:16;;;;;;;7.82;3.50;;;10.20;99.90;;;;;;5049402;28;20036;-65
2024/01/22 09:00:42;;;;;;;21.27;3.35;;;10.20;99.90;;;;;;5049387;28;20502;-65
2024/01/22 09:03:07;;;;;;;13.00;3.22;;;9.70;99.90;;;;;;5037462;28;20049;-64
2024/01/22 09:05:34;;;;;;;21.15;4.05;;;9.90;99.90;;;;;;5047447;28;20041;-67
2024/01/22 09:07:59;;;;;;;20.67;3.83;;;10.20;99.90;;;;;;5041565;28;20045;-68
2024/01/22 09:10:26;;;;;;;21.30;4.07;;;10.00;99.90;;;;;;5046924;28;20684;-64
2024/01/22 09:12:52;;;;;;;28.55;4.40;;;10.00;99.90;;;;;;5040995;28;20047;-65
2024/01/22 09:15:18;;;;;;;33.53;5.22;;;9.60;99.90;;;;;;5046578;28;20060;-67
2024/01/22 09:17:44;;;;;;;36.58;6.95;;;9.60;99.90;;;;;;5027926;28;20057;-65
2024/01/22 09:20:10;;;;;;;44.90;5.88;;;10.00;99.90;;;;;;5049019;28;20621;-65
2024/01/22 09:22:37;;;;;;;40.95;5.45;;;9.60;99.90;;;;;;5032320;28;20098;-66
2024/01/22 09:25:03;;;;;;;43.90;6.45;;;9.80;99.90;;;;;;5048812;28;20043;-64
2024/01/22 09:27:28;;;;;;;38.90;6.00;;;9.80;99.90;;;;;;5045632;28;20033;-65
2024/01/22 09:29:55;;;;;;;52.05;7.15;;;9.80;99.90;;;;;;5030760;28;20531;-66
2024/01/22 09:32:22;;;;;;;42.45;6.53;;;9.50;99.90;;;;;;5031568;28;20140;-64
2024/01/22 09:34:47;;;;;;;40.15;6.03;;;9.80;99.90;;;;;;5046914;28;20227;-66
2024/01/22 09:37:14;;;;;;;42.05;6.10;;;9.30;99.90;;;;;;5042399;28;20235;-67
2024/01/22 09:39:40;;;;;;;42.50;6.80;;;9.70;99.90;;;;;;5025021;28;20037;-66
2024/01/22 09:42:06;;;;;;;40.40;6.40;;;9.50;99.90;;;;;;5046962;28;20137;-67
2024/01/22 09:44:33;;;;;;;47.03;6.47;;;9.50;99.90;;;;;;5047686;28;20071;-69
2024/01/22 09:47:02;;;;;;;43.47;6.85;;;9.10;99.90;;;;;;5044863;28;20041;-65
2024/01/22 09:49:28;;;;;;;41.83;6.38;;;9.60;99.90;;;;;;5030011;28;20505;-64
2024/01/22 09:51:53;;;;;;;45.35;7.85;;;9.40;99.90;;;;;;5034845;28;20064;-65
2024/01/22 09:54:20;;;;;;;39.70;6.20;;;9.30;99.90;;;;;;5022889;28;20036;-64
2024/01/22 09:56:53;;;;;;;41.85;7.18;;;9.60;99.90;;;;;;5039508;28;20186;-66
2024/01/22 09:59:21;;;;;;;42.60;6.38;;;9.50;99.90;;;;;;5023877;28;20059;-65
2024/01/22 10:01:48;;;;;;;37.78;6.50;;;9.00;99.90;;;;;;5014665;28;20092;-67
2024/01/22 10:04:15;;;;;;;45.05;6.97;;;9.50;99.90;;;;;;5019027;28;20131;-66
2024/01/22 10:06:41;;;;;;;47.38;5.93;;;9.30;99.90;;;;;;5030333;28;20206;-65
2024/01/22 10:09:07;;;;;;;36.78;6.05;;;9.10;99.90;;;;;;5039857;28;20041;-65
2024/01/22 10:11:33;;;;;;;43.25;6.05;;;9.00;99.90;;;;;;5045788;28;20090;-65
2024/01/22 10:13:59;;;;;;;42.97;6.47;;;9.00;99.90;;;;;;5040053;28;20061;-65
2024/01/22 10:16:29;;;;;;;34.67;6.25;;;8.90;99.90;;;;;;5031534;28;20363;-65
2024/01/22 10:19:00;;;;;;;38.90;6.70;;;8.80;99.90;;;;;;5026804;28;20212;-65
2024/01/22 10:21:26;;;;;;;29.92;5.05;;;8.80;99.90;;;;;;5028316;28;20303;-66
2024/01/22 10:24:09;;;;;;;43.20;6.07;;;8.90;99.90;;;;;;5017737;28;20115;-65
2024/01/22 10:26:36;;;;;;;30.90;5.28;;;9.10;99.90;;;;;;5013053;28;20041;-67
2024/01/22 10:29:29;;;;;;;35.08;5.18;;;8.80;99.90;;;;;;5007896;28;20041;-66
2024/01/22 10:32:01;;;;;;;42.13;5.72;;;8.80;99.90;;;;;;5021116;28;20132;-64
2024/01/22 10:34:29;;;;;;;43.10;6.43;;;9.00;99.90;;;;;;5049752;28;20033;-64
2024/01/22 10:37:09;;;;;;;41.53;6.05;;;8.80;99.90;;;;;;5033361;28;20045;-65
2024/01/22 10:39:37;;;;;;;41.55;6.25;;;8.80;99.90;;;;;;5049299;28;20032;-66
2024/01/22 10:42:16;;;;;;;31.05;5.68;;;8.90;99.90;;;;;;5024334;28;20056;-64
2024/01/22 10:44:44;;;;;;;40.45;5.57;;;9.00;99.90;;;;;;5041433;28;20041;-66
2024/01/22 10:47:11;;;;;;;47.80;6.93;;;8.80;99.90;;;;;;5049255;28;20416;-66
2024/01/22 10:49:37;;;;;;;39.03;5.38;;;8.80;99.90;;;;;;5050946;28;20041;-66
2024/01/22 10:52:04;;;;;;;43.20;7.40;;;8.90;99.90;;;;;;5033165;28;20311;-66
2024/01/22 10:54:31;;;;;;;43.00;7.32;;;9.00;99.90;;;;;;5052289;28;20053;-64
2024/01/22 10:57:11;;;;;;;34.35;6.00;;;9.10;99.90;;;;;;5034851;28;20033;-66
2024/01/22 10:59:46;;;;;;;48.53;7.47;;;8.90;99.90;;;;;;5046234;28;20124;-65
2024/01/22 11:02:34;;;;;;;35.45;6.90;;;9.00;99.90;;;;;;5042303;28;20044;-65
2024/01/22 11:05:13;;;;;;;47.53;8.10;;;9.00;99.90;;;;;;5038258;28;20048;-64
2024/01/22 11:07:40;;;;;;;46.93;7.47;;;8.90;99.90;;;;;;5052308;28;20064;-66
2024/01/22 11:10:16;;;;;;;46.85;6.65;;;9.00;99.90;;;;;;5051529;28;20306;-65
2024/01/22 11:12:48;;;;;;;44.28;6.15;;;8.80;99.90;;;;;;5032728;28;20037;-65
2024/01/22 11:15:14;;;;;;;45.80;6.90;;;8.80;99.90;;;;;;5050176;28;20044;-66
2024/01/22 11:17:40;;;;;;;41.97;7.93;;;8.80;99.90;;;;;;5040893;28;20077;-65
2024/01/22 11:20:16;;;;;;;46.20;6.88;;;8.90;99.90;;;;;;5020830;28;20064;-65
2024/01/22 11:23:01;;;;;;;47.42;7.10;;;9.10;99.90;;;;;;5051079;28;20044;-64
2024/01/22 11:25:27;;;;;;;43.70;7.10;;;9.20;99.90;;;;;;5040076;28;20817;-67
2024/01/22 11:28:01;;;;;;;31.60;6.10;;;9.20;99.90;;;;;;5020633;28;20045;-65
2024/01/22 11:30:32;;;;;;;38.30;6.70;;;9.20;99.90;;;;;;5045820;28;20049;-64
2024/01/22 11:32:58;;;;;;;35.95;5.97;;;9.10;99.90;;;;;;5014894;28;20073;-64
2024/01/22 11:35:37;;;;;;;38.50;6.45;;;9.10;99.90;;;;;;5038689;28;20037;-66
2024/01/22 11:38:04;;;;;;;36.58;6.40;;;9.10;99.90;;;;;;5024960;28;21379;-66
2024/01/22 11:40:52;;;;;;;33.40;6.03;;;9.20;99.90;;;;;;5031958;28;20034;-65
2024/01/22 11:43:20;;;;;;;33.70;5.70;;;9.20;99.90;;;;;;5034028;28;20067;-65
2024/01/22 11:45:46;;;;;;;36.40;6.10;;;9.00;99.90;;;;;;5049705;28;20420;-63
2024/01/22 11:48:20;;;;;;;35.28;5.90;;;8.90;99.90;;;;;;5051865;28;20139;-65
2024/01/22 11:51:02;;;;;;;38.08;5.32;;;8.90;99.90;;;;;;5040981;28;20068;-65
2024/01/22 11:53:28;;;;;;;33.55;5.57;;;8.90;99.90;;;;;;5039788;28;20441;-64
2024/01/22 11:56:05;;;;;;;32.83;5.07;;;8.90;99.90;;;;;;5049023;28;20116;-65
2024/01/22 11:58:32;;;;;;;28.60;5.18;;;8.80;99.90;;;;;;5037931;28;20080;-64
2024/01/22 12:01:05;;;;;;;29.77;5.50;;;8.90;99.90;;;;;;5042115;28;20132;-65
2024/01/22 12:03:30;;;;;;;33.95;5.40;;;9.00;99.90;;;;;;5030004;28;20101;-63
2024/01/22 12:06:04;;;;;;;36.08;5.55;;;9.10;99.90;;;;;;5032174;28;20033;-64
2024/01/22 12:08:34;;;;;;;29.73;4.50;;;9.10;99.90;;;;;;5030914;28;20049;-64
2024/01/22 12:11:06;;;;;;;30.23;4.75;;;9.30;99.90;;;;;;5038442;28;20045;-64
2024/01/22 12:13:32;;;;;;;31.38;5.45;;;9.20;99.90;;;;;;5047382;28;20041;-65
2024/01/22 12:15:58;;;;;;;32.38;5.15;;;9.10;99.90;;;;;;5035382;28;20433;-65
2024/01/22 12:18:24;;;;;;;29.55;5.07;;;9.10;99.90;;;;;;5046801;28;20090;-63
2024/01/22 12:20:51;;;;;;;25.02;4.25;;;9.10;99.90;;;;;;5034515;28;20584;-64
2024/01/22 12:23:30;;;;;;;31.02;5.63;;;9.10;99.90;;;;;;5050722;28;20037;-64
2024/01/22 12:25:56;;;;;;;25.20;4.22;;;9.00;99.90;;;;;;5047048;28;20041;-66
2024/01/22 12:28:23;;;;;;;25.55;4.50;;;9.00;99.90;;;;;;5041327;28;20053;-66
2024/01/22 12:31:00;;;;;;;23.13;3.80;;;8.90;99.90;;;;;;5039982;28;20053;-65
2024/01/22 12:33:27;;;;;;;29.50;5.07;;;9.00;99.90;;;;;;5044594;28;20041;-65
2024/01/22 12:36:13;;;;;;;23.90;4.30;;;9.10;99.90;;;;;;5047620;28;20124;-66
2024/01/22 12:38:53;;;;;;;24.70;3.63;;;9.10;99.90;;;;;;5032452;28;20033;-64
2024/01/22 12:41:20;;;;;;;26.50;4.80;;;9.10;99.90;;;;;;5047182;28;20047;-64
2024/01/22 12:43:46;;;;;;;19.88;3.58;;;9.20;99.90;;;;;;5046126;28;20045;-63
2024/01/22 12:46:15;;;;;;;19.08;3.28;;;9.10;99.90;;;;;;5045950;28;20036;-64
2024/01/22 12:48:44;;;;;;;21.77;3.63;;;9.00;99.90;;;;;;5046514;28;20044;-64